Terminal Aerodrome Forecast
Issued by NWS

Current Version | Previous Version | Text Only | Print | Product List | Glossary On
Versions: 1 2 3 4 5 6 7 8 9 10 11 12 13 14 15 16 17 18 19
000
FTUS43 KGRR 201000 AAA
TAFLAN
TAF AMD
KLAN 201002Z 2010/2106 20009KT P6SM TS SCT050CB OVC090
      TEMPO 2010/2012 2SM +TSRA BR OVC040CB
     FM201500 22014G21KT P6SM BKN250
     FM201800 20016G26KT P6SM VCTS BKN050CB PROB30 2019/2023 5SM
      -TSRA BKN015CB
     FM210100 22011KT P6SM BKN150=

USA.gov is the U.S. government's official web portal to all federal, state and local government web resources and services.